Time;durP1;ratioP1;P1;durP2;ratioP2;P2;SDS_P1;SDS_P2;PMS_P1;PMS_P2;Temp;Humidity;BMP_temperature;BMP_pressure;BME280_temperature;BME280_humidity;BME280_pressure;Samples;Min_cycle;Max_cycle;Signal;HPM_P1;HPM_P2
2023/07/19 00:01:30;;;;;;;7.28;5.60;;;22.40;76.00;;;;;;4970699;28;20097;-62
2023/07/19 00:03:56;;;;;;;6.38;4.97;;;22.40;76.30;;;;;;4967441;28;20350;-61
2023/07/19 00:06:23;;;;;;;5.97;5.05;;;22.40;76.00;;;;;;4970627;28;20042;-63
2023/07/19 00:08:49;;;;;;;8.10;5.13;;;22.40;76.10;;;;;;4967444;28;20521;-62
2023/07/19 00:11:14;;;;;;;8.18;5.45;;;22.40;76.10;;;;;;4968662;28;20077;-60
2023/07/19 00:13:40;;;;;;;6.25;5.60;;;22.40;76.10;;;;;;4967141;28;20026;-62
2023/07/19 00:16:06;;;;;;;8.18;5.68;;;22.40;76.30;;;;;;4968578;28;20070;-62
2023/07/19 00:18:31;;;;;;;6.88;5.70;;;22.30;76.20;;;;;;4967965;28;20121;-60
2023/07/19 00:20:57;;;;;;;6.28;5.50;;;22.30;76.30;;;;;;4969367;28;20070;-61
2023/07/19 00:23:22;;;;;;;7.85;5.70;;;22.20;76.30;;;;;;4969126;28;20509;-62
2023/07/19 00:25:48;;;;;;;7.03;5.25;;;22.20;76.60;;;;;;4968340;28;20030;-61
2023/07/19 00:28:14;;;;;;;6.72;5.72;;;22.10;76.80;;;;;;4971011;28;20069;-62
2023/07/19 00:30:39;;;;;;;7.32;5.43;;;22.00;77.00;;;;;;4969853;28;20387;-62
2023/07/19 00:33:05;;;;;;;5.95;5.35;;;22.00;77.10;;;;;;4966886;28;20031;-63
2023/07/19 00:35:30;;;;;;;9.30;6.07;;;21.90;77.30;;;;;;4968469;28;20022;-63
2023/07/19 00:37:57;;;;;;;9.05;5.50;;;21.90;77.30;;;;;;4967742;28;20059;-62
2023/07/19 00:40:22;;;;;;;7.05;5.60;;;21.80;77.50;;;;;;4968074;28;20069;-60
2023/07/19 00:42:48;;;;;;;6.28;5.45;;;21.80;77.70;;;;;;4967448;28;20054;-62
2023/07/19 00:45:13;;;;;;;6.78;5.22;;;21.80;78.00;;;;;;4968511;28;20080;-60
2023/07/19 00:47:39;;;;;;;7.10;5.15;;;21.70;78.10;;;;;;4970830;28;20035;-61
2023/07/19 00:50:09;;;;;;;6.70;5.35;;;21.70;78.10;;;;;;4967713;28;20282;-62
2023/07/19 00:52:34;;;;;;;6.22;5.30;;;21.70;78.50;;;;;;4975820;28;20062;-62
2023/07/19 00:55:00;;;;;;;5.90;5.20;;;21.60;78.20;;;;;;4979513;28;20129;-62
2023/07/19 00:57:26;;;;;;;9.02;5.50;;;21.70;78.40;;;;;;4975383;28;20549;-60
2023/07/19 00:59:52;;;;;;;6.68;5.40;;;21.70;78.40;;;;;;4970960;28;20046;-60
2023/07/19 01:02:18;;;;;;;5.95;4.95;;;21.70;78.40;;;;;;4971314;28;20035;-62
2023/07/19 01:04:44;;;;;;;7.65;5.45;;;21.70;78.20;;;;;;4971888;28;20034;-62
2023/07/19 01:07:09;;;;;;;6.20;5.40;;;21.70;78.30;;;;;;4969538;28;20074;-62
2023/07/19 01:09:35;;;;;;;5.93;5.32;;;21.70;78.30;;;;;;4971015;28;20054;-62
2023/07/19 01:12:01;;;;;;;6.22;5.07;;;21.70;78.00;;;;;;4973193;28;20041;-60
2023/07/19 01:14:26;;;;;;;6.40;5.28;;;21.70;78.30;;;;;;4971952;28;20098;-61
2023/07/19 01:16:52;;;;;;;7.75;5.05;;;21.70;78.50;;;;;;4972562;28;20043;-60
2023/07/19 01:19:18;;;;;;;7.65;5.85;;;21.70;78.60;;;;;;4969853;28;20043;-62
2023/07/19 01:21:43;;;;;;;7.97;5.95;;;21.70;78.70;;;;;;4971622;28;20044;-60
2023/07/19 01:24:09;;;;;;;6.43;5.32;;;21.70;78.80;;;;;;4971523;28;20049;-63
2023/07/19 01:26:35;;;;;;;7.82;5.63;;;21.60;79.10;;;;;;4970689;28;20030;-62
2023/07/19 01:29:01;;;;;;;8.82;5.72;;;21.50;79.20;;;;;;4972690;28;20166;-62
2023/07/19 01:31:26;;;;;;;7.63;6.13;;;21.50;79.40;;;;;;4971814;28;20039;-61
2023/07/19 01:33:52;;;;;;;6.10;5.28;;;21.50;79.70;;;;;;4970581;28;20434;-62
2023/07/19 01:36:17;;;;;;;6.35;5.60;;;21.50;79.70;;;;;;4971321;28;20038;-62
2023/07/19 01:38:43;;;;;;;8.48;5.93;;;21.40;79.90;;;;;;4970200;28;20034;-62
2023/07/19 01:41:08;;;;;;;7.55;5.75;;;21.40;80.10;;;;;;4969301;28;20046;-63
2023/07/19 01:43:34;;;;;;;6.10;5.50;;;21.40;80.10;;;;;;4971393;28;20625;-59
2023/07/19 01:46:00;;;;;;;8.50;5.82;;;21.40;80.20;;;;;;4973474;28;20419;-62
2023/07/19 01:48:26;;;;;;;7.88;5.50;;;21.40;80.10;;;;;;4970029;28;20155;-62
2023/07/19 01:50:51;;;;;;;7.40;5.97;;;21.40;80.10;;;;;;4970255;28;20505;-62
2023/07/19 01:53:17;;;;;;;6.85;5.43;;;21.30;80.10;;;;;;4968965;28;20045;-61
2023/07/19 01:55:42;;;;;;;7.90;6.32;;;21.40;80.10;;;;;;4972879;28;20062;-61
2023/07/19 01:58:09;;;;;;;6.32;5.72;;;21.40;80.30;;;;;;4970693;28;20043;-62
2023/07/19 02:00:35;;;;;;;6.18;5.50;;;21.40;80.20;;;;;;4973979;28;20051;-63
2023/07/19 02:03:00;;;;;;;6.50;5.47;;;21.40;80.10;;;;;;4969957;28;20060;-59
2023/07/19 02:05:26;;;;;;;9.23;5.57;;;21.40;80.00;;;;;;4970204;28;20479;-62
2023/07/19 02:07:52;;;;;;;7.68;5.57;;;21.40;80.30;;;;;;4970972;28;20038;-61
2023/07/19 02:10:18;;;;;;;7.50;5.50;;;21.40;80.20;;;;;;4967619;28;20450;-62
2023/07/19 02:12:43;;;;;;;6.20;5.32;;;21.30;80.10;;;;;;4976645;28;20045;-60
2023/07/19 02:15:09;;;;;;;6.75;5.68;;;21.30;80.20;;;;;;4972911;28;20034;-62
2023/07/19 02:17:35;;;;;;;7.03;5.75;;;21.30;80.50;;;;;;4970602;28;20054;-61
2023/07/19 02:20:01;;;;;;;8.45;6.22;;;21.20;80.60;;;;;;4972047;28;20066;-60
2023/07/19 02:22:27;;;;;;;9.80;5.93;;;21.20;80.50;;;;;;4969523;28;20582;-62
2023/07/19 02:24:52;;;;;;;9.15;5.38;;;21.20;80.50;;;;;;4970161;28;20110;-62
2023/07/19 02:27:18;;;;;;;8.07;5.97;;;21.20;80.50;;;;;;4969133;28;20038;-59
2023/07/19 02:29:43;;;;;;;7.72;5.72;;;21.20;80.60;;;;;;4970073;28;20050;-61
2023/07/19 02:32:09;;;;;;;5.85;5.25;;;21.10;80.60;;;;;;4970481;28;20510;-59
2023/07/19 02:34:34;;;;;;;6.30;5.18;;;21.10;80.70;;;;;;4968579;28;20037;-60
2023/07/19 02:37:00;;;;;;;6.53;5.07;;;21.00;80.60;;;;;;4970546;28;20130;-62
2023/07/19 02:39:30;;;;;;;6.78;5.55;;;21.00;80.80;;;;;;4969836;28;20038;-62
2023/07/19 02:41:57;;;;;;;8.32;5.43;;;21.00;80.80;;;;;;4971883;28;20065;-62
2023/07/19 02:44:23;;;;;;;7.75;5.30;;;21.00;81.00;;;;;;4971348;28;20044;-62
2023/07/19 02:46:48;;;;;;;6.15;4.93;;;21.10;81.00;;;;;;4971447;28;20038;-60
2023/07/19 02:49:15;;;;;;;6.32;5.40;;;21.00;81.00;;;;;;4969822;28;20487;-62
2023/07/19 02:51:40;;;;;;;6.45;4.97;;;21.00;80.90;;;;;;4968820;28;20041;-62
2023/07/19 02:54:06;;;;;;;6.65;5.28;;;21.10;80.70;;;;;;4975278;28;20034;-60
2023/07/19 02:56:31;;;;;;;7.28;5.15;;;21.00;80.60;;;;;;4973522;28;20037;-60
2023/07/19 02:58:57;;;;;;;5.80;4.82;;;21.00;80.50;;;;;;4969369;28;20106;-62
2023/07/19 03:01:23;;;;;;;6.57;5.15;;;21.00;80.30;;;;;;4971963;28;20446;-62
2023/07/19 03:03:49;;;;;;;8.73;5.00;;;21.00;80.50;;;;;;4968415;28;20031;-62
2023/07/19 03:06:14;;;;;;;7.78;5.55;;;20.90;80.60;;;;;;4970505;28;20034;-62
2023/07/19 03:08:40;;;;;;;5.72;5.15;;;21.00;80.60;;;;;;4967777;28;20058;-60
2023/07/19 03:11:08;;;;;;;7.18;5.45;;;20.90;80.60;;;;;;4968845;28;20481;-61
2023/07/19 03:13:34;;;;;;;6.40;5.50;;;20.90;80.60;;;;;;4968622;28;20474;-62
2023/07/19 03:16:00;;;;;;;8.13;5.60;;;20.90;80.60;;;;;;4969817;28;20046;-60
2023/07/19 03:18:25;;;;;;;6.85;5.97;;;20.90;80.80;;;;;;4967824;28;20043;-62
2023/07/19 03:20:59;;;;;;;9.75;5.38;;;20.80;80.80;;;;;;4969559;28;20437;-62
2023/07/19 03:23:25;;;;;;;7.10;5.70;;;20.80;81.40;;;;;;4969190;28;20038;-61
2023/07/19 03:25:51;;;;;;;7.82;5.03;;;20.80;81.00;;;;;;4969996;28;20085;-63
2023/07/19 03:28:17;;;;;;;6.03;5.13;;;20.70;81.10;;;;;;4969090;28;20487;-62
2023/07/19 03:30:43;;;;;;;6.95;5.93;;;20.60;81.30;;;;;;4969953;28;21008;-61
2023/07/19 03:33:08;;;;;;;7.07;5.35;;;20.60;81.50;;;;;;4970926;28;20067;-59
2023/07/19 03:35:34;;;;;;;7.13;5.50;;;20.60;81.70;;;;;;4969976;28;20546;-61
2023/07/19 03:37:59;;;;;;;8.90;5.80;;;20.60;81.60;;;;;;4967881;28;20035;-61
2023/07/19 03:40:25;;;;;;;7.03;5.07;;;20.60;81.80;;;;;;4967125;28;20495;-59
2023/07/19 03:42:51;;;;;;;6.60;5.38;;;20.60;81.90;;;;;;4967586;28;20117;-62
2023/07/19 03:45:16;;;;;;;5.95;5.35;;;20.50;81.90;;;;;;4969652;28;20667;-61
2023/07/19 03:47:42;;;;;;;10.98;5.78;;;20.50;82.00;;;;;;4971417;28;20046;-62
2023/07/19 03:50:08;;;;;;;6.78;5.78;;;20.50;82.10;;;;;;4968267;28;20089;-62
2023/07/19 03:52:34;;;;;;;11.43;6.30;;;20.50;82.10;;;;;;4968828;28;20031;-62
2023/07/19 03:55:02;;;;;;;11.75;6.90;;;20.50;82.30;;;;;;4971497;28;20532;-60
2023/07/19 03:57:27;;;;;;;8.15;6.70;;;20.50;82.70;;;;;;4969409;28;20039;-61
2023/07/19 03:59:55;;;;;;;10.57;6.75;;;20.40;82.90;;;;;;4967277;28;20042;-62
2023/07/19 04:02:22;;;;;;;8.75;6.78;;;20.30;83.90;;;;;;4970510;28;20213;-61
2023/07/19 04:04:48;;;;;;;8.05;6.35;;;20.30;83.30;;;;;;4968493;28;20045;-61
2023/07/19 04:07:14;;;;;;;11.00;6.97;;;20.30;83.40;;;;;;4966228;28;20713;-62
2023/07/19 04:09:40;;;;;;;9.10;6.22;;;20.30;83.50;;;;;;4968993;28;20045;-62
2023/07/19 04:12:06;;;;;;;8.27;6.85;;;20.30;83.60;;;;;;4970716;28;20078;-62
2023/07/19 04:14:32;;;;;;;9.75;5.80;;;20.30;83.80;;;;;;4966905;28;20056;-62
2023/07/19 04:16:58;;;;;;;12.90;6.53;;;20.30;83.80;;;;;;4969163;28;20121;-60
2023/07/19 04:19:23;;;;;;;10.88;6.35;;;20.20;83.90;;;;;;4970313;28;20359;-60
2023/07/19 04:21:49;;;;;;;7.18;5.72;;;20.20;83.90;;;;;;4966438;28;20047;-60
2023/07/19 04:24:14;;;;;;;10.07;6.15;;;20.20;84.10;;;;;;4967073;28;20418;-60
2023/07/19 04:26:40;;;;;;;9.77;6.22;;;20.20;84.20;;;;;;4968537;28;20038;-59
2023/07/19 04:29:06;;;;;;;8.10;6.18;;;20.20;84.30;;;;;;4968492;28;20047;-61
2023/07/19 04:31:31;;;;;;;13.27;5.85;;;20.20;84.40;;;;;;4967518;28;20035;-62
2023/07/19 04:33:57;;;;;;;7.55;5.60;;;20.20;84.60;;;;;;4971853;28;20089;-61
2023/07/19 04:36:22;;;;;;;8.13;5.85;;;20.20;84.50;;;;;;4967323;28;20038;-61
2023/07/19 04:38:48;;;;;;;6.88;5.60;;;20.30;84.50;;;;;;4967582;28;20030;-62
2023/07/19 04:41:13;;;;;;;10.68;5.53;;;20.40;84.50;;;;;;4968634;28;20588;-62
2023/07/19 04:43:39;;;;;;;8.50;5.85;;;20.40;84.40;;;;;;4968066;28;20126;-61
2023/07/19 04:46:05;;;;;;;8.07;5.47;;;20.40;84.30;;;;;;4968597;28;20093;-59
2023/07/19 04:48:30;;;;;;;7.10;5.65;;;20.50;84.30;;;;;;4969178;28;20050;-61
2023/07/19 04:50:57;;;;;;;8.85;5.40;;;20.60;84.30;;;;;;4967607;28;20302;-59
2023/07/19 04:53:24;;;;;;;6.35;5.47;;;20.60;84.20;;;;;;4969768;28;20407;-61
2023/07/19 04:55:51;;;;;;;10.88;5.40;;;20.70;84.10;;;;;;4974310;28;20502;-61
2023/07/19 04:58:17;;;;;;;7.38;5.28;;;20.70;84.00;;;;;;4968423;28;20043;-63
2023/07/19 05:00:46;;;;;;;6.20;5.40;;;20.80;84.00;;;;;;4967673;28;20038;-61
2023/07/19 05:03:12;;;;;;;9.43;5.85;;;20.80;84.00;;;;;;4969893;28;20034;-60
2023/07/19 05:05:39;;;;;;;9.27;5.25;;;20.90;84.00;;;;;;4971470;28;20030;-63
2023/07/19 05:08:06;;;;;;;7.30;5.55;;;20.90;83.80;;;;;;4968080;28;20078;-62
2023/07/19 05:10:34;;;;;;;9.77;5.50;;;21.00;83.80;;;;;;4968033;28;21508;-61
2023/07/19 05:12:59;;;;;;;11.38;5.97;;;21.00;83.80;;;;;;4968657;28;20404;-62
2023/07/19 05:15:25;;;;;;;7.90;5.65;;;21.00;84.00;;;;;;4967681;28;20094;-62
2023/07/19 05:17:50;;;;;;;8.65;5.35;;;21.10;83.90;;;;;;4966729;28;20042;-62
2023/07/19 05:20:16;;;;;;;7.78;5.50;;;21.10;83.80;;;;;;4968770;28;20298;-60
2023/07/19 05:22:42;;;;;;;8.30;5.25;;;21.20;83.60;;;;;;4967626;28;20048;-61
2023/07/19 05:25:09;;;;;;;6.88;5.53;;;21.30;83.60;;;;;;4967900;28;20398;-61
2023/07/19 05:27:35;;;;;;;7.93;5.20;;;21.30;83.40;;;;;;4968216;28;20035;-62
2023/07/19 05:30:00;;;;;;;7.28;5.53;;;21.40;83.30;;;;;;4968969;28;20581;-61
2023/07/19 05:32:26;;;;;;;6.85;5.13;;;21.50;83.20;;;;;;4968682;28;20107;-62
2023/07/19 05:34:52;;;;;;;8.73;5.30;;;21.50;82.90;;;;;;4968942;28;22196;-60
2023/07/19 05:37:17;;;;;;;7.10;5.10;;;21.60;82.90;;;;;;4972112;28;20035;-62
2023/07/19 05:39:43;;;;;;;7.82;5.28;;;21.60;82.80;;;;;;4971354;28;20723;-62
2023/07/19 05:42:08;;;;;;;6.47;4.80;;;21.70;82.70;;;;;;4972225;28;20414;-62
2023/07/19 05:44:34;;;;;;;5.85;5.05;;;21.80;82.70;;;;;;4971039;28;20041;-61
2023/07/19 05:47:00;;;;;;;7.30;4.97;;;21.90;82.60;;;;;;4973422;28;20487;-62
2023/07/19 05:49:25;;;;;;;7.03;4.85;;;21.90;82.30;;;;;;4971337;28;20124;-62
2023/07/19 05:51:51;;;;;;;8.77;5.10;;;22.00;82.10;;;;;;4974044;28;20108;-61
2023/07/19 05:54:17;;;;;;;5.70;4.53;;;22.00;81.80;;;;;;4970968;28;22376;-61
2023/07/19 05:56:42;;;;;;;5.40;4.70;;;22.10;81.50;;;;;;4971614;28;20069;-62
2023/07/19 05:59:08;;;;;;;5.70;4.63;;;22.20;81.30;;;;;;4971194;28;20335;-60
2023/07/19 06:01:34;;;;;;;6.78;4.20;;;22.30;81.00;;;;;;4970418;28;20034;-62
2023/07/19 06:04:00;;;;;;;12.52;4.70;;;22.40;80.70;;;;;;4971609;28;20035;-62
2023/07/19 06:06:26;;;;;;;7.32;4.35;;;22.40;80.30;;;;;;4972370;28;20100;-61
2023/07/19 06:08:52;;;;;;;7.07;4.15;;;22.50;79.90;;;;;;4971392;28;20102;-63
2023/07/19 06:11:17;;;;;;;6.22;4.45;;;22.60;80.00;;;;;;4971338;28;20084;-61
2023/07/19 06:13:43;;;;;;;7.65;4.45;;;22.70;79.30;;;;;;4970565;28;20061;-62
2023/07/19 06:16:09;;;;;;;7.35;4.22;;;22.70;78.70;;;;;;4972138;28;20070;-62
2023/07/19 06:18:34;;;;;;;7.80;3.88;;;22.80;78.10;;;;;;4970067;28;20030;-63
2023/07/19 06:21:00;;;;;;;6.07;4.10;;;22.90;77.70;;;;;;4972968;28;20121;-61
2023/07/19 06:23:25;;;;;;;4.45;4.05;;;23.00;76.90;;;;;;4971881;28;20061;-62
2023/07/19 06:25:51;;;;;;;5.72;4.18;;;23.00;75.40;;;;;;4970250;28;20726;-62
2023/07/19 06:28:16;;;;;;;7.15;3.67;;;23.10;74.70;;;;;;4971343;28;20043;-62
2023/07/19 06:30:42;;;;;;;6.95;3.55;;;23.10;74.20;;;;;;4969845;28;20042;-62
2023/07/19 06:33:08;;;;;;;6.70;4.20;;;23.20;74.60;;;;;;4969251;28;20118;-61
2023/07/19 06:35:34;;;;;;;4.53;3.22;;;23.30;73.60;;;;;;4968782;28;20683;-62
2023/07/19 06:38:00;;;;;;;4.22;3.38;;;23.40;73.70;;;;;;4973610;28;20038;-63
2023/07/19 06:40:26;;;;;;;4.93;3.70;;;23.40;72.60;;;;;;4971263;28;20042;-62
2023/07/19 06:42:52;;;;;;;7.28;3.70;;;23.50;71.40;;;;;;4969375;28;20456;-61
2023/07/19 06:45:18;;;;;;;6.38;3.38;;;23.60;71.40;;;;;;4970937;28;20095;-62
2023/07/19 06:47:44;;;;;;;4.93;3.58;;;23.70;71.40;;;;;;4968600;28;20055;-62
2023/07/19 06:50:10;;;;;;;4.05;3.20;;;23.70;70.70;;;;;;4969825;28;20045;-62
2023/07/19 06:52:36;;;;;;;4.65;3.40;;;23.80;70.30;;;;;;4971592;28;20034;-61
2023/07/19 06:55:03;;;;;;;5.80;3.40;;;23.90;70.40;;;;;;4974913;28;20562;-58
2023/07/19 06:57:28;;;;;;;4.65;3.58;;;23.90;70.50;;;;;;4978298;28;20113;-61
2023/07/19 06:59:54;;;;;;;5.53;3.33;;;24.00;69.40;;;;;;4972945;28;20346;-59
2023/07/19 07:02:20;;;;;;;4.82;3.30;;;24.10;68.40;;;;;;4974908;28;20054;-63
2023/07/19 07:04:46;;;;;;;5.13;3.15;;;24.10;68.80;;;;;;4961306;28;20148;-61
2023/07/19 07:07:14;;;;;;;8.23;3.40;;;24.20;68.30;;;;;;4974734;28;20129;-62
2023/07/19 07:09:41;;;;;;;5.30;3.17;;;24.30;68.00;;;;;;4970785;28;20044;-61
2023/07/19 07:12:07;;;;;;;4.53;3.28;;;24.30;67.90;;;;;;4975616;28;20039;-62
2023/07/19 07:14:32;;;;;;;6.72;3.53;;;24.40;68.20;;;;;;4979097;28;20518;-61
2023/07/19 07:16:59;;;;;;;4.00;3.42;;;24.50;67.20;;;;;;4968526;28;20094;-63
2023/07/19 07:19:24;;;;;;;5.38;3.45;;;24.50;68.00;;;;;;4960174;28;20128;-63
2023/07/19 07:21:50;;;;;;;5.82;3.47;;;24.60;68.00;;;;;;4978573;28;20038;-62
2023/07/19 07:24:15;;;;;;;7.10;3.55;;;24.70;67.60;;;;;;4982821;28;20039;-63
2023/07/19 07:26:41;;;;;;;6.75;3.42;;;24.80;67.60;;;;;;4976827;28;20125;-62
2023/07/19 07:29:07;;;;;;;5.55;3.17;;;24.80;67.80;;;;;;4977430;28;20043;-63
2023/07/19 07:31:32;;;;;;;5.75;3.60;;;24.90;67.70;;;;;;4978908;28;20094;-62
2023/07/19 07:33:58;;;;;;;4.32;3.20;;;25.00;66.90;;;;;;4979223;28;20466;-61
2023/07/19 07:36:24;;;;;;;5.03;3.10;;;25.10;66.90;;;;;;4968380;28;20741;-62
2023/07/19 07:38:50;;;;;;;4.05;2.92;;;25.20;66.30;;;;;;4977560;28;20477;-62
2023/07/19 07:41:16;;;;;;;4.75;3.10;;;25.30;65.20;;;;;;4979387;28;20106;-63
2023/07/19 07:43:41;;;;;;;4.82;3.00;;;25.30;63.70;;;;;;4978568;28;20034;-63
2023/07/19 07:46:07;;;;;;;4.35;2.75;;;25.40;62.70;;;;;;4967772;28;20105;-62
2023/07/19 07:48:33;;;;;;;4.32;2.63;;;25.50;63.80;;;;;;4962118;28;20039;-62
2023/07/19 07:50:58;;;;;;;3.97;2.70;;;25.50;62.90;;;;;;4959013;28;20421;-63
2023/07/19 07:53:24;;;;;;;3.58;2.90;;;25.50;62.40;;;;;;4958628;28;20565;-62
2023/07/19 07:55:49;;;;;;;6.25;3.33;;;25.60;62.40;;;;;;4959965;28;20038;-62
2023/07/19 07:58:16;;;;;;;5.90;3.28;;;25.60;62.20;;;;;;4956665;28;20050;-64
2023/07/19 08:00:42;;;;;;;3.95;2.85;;;25.70;62.60;;;;;;4969956;28;20041;-63
2023/07/19 08:03:09;;;;;;;5.15;2.90;;;25.70;62.90;;;;;;4975469;28;20043;-63
2023/07/19 08:05:34;;;;;;;3.92;3.13;;;25.70;62.70;;;;;;4971873;28;20037;-62
2023/07/19 08:08:01;;;;;;;3.28;2.50;;;25.80;61.60;;;;;;4971046;28;20038;-62
2023/07/19 08:10:27;;;;;;;3.83;2.42;;;25.90;61.20;;;;;;4958813;28;20049;-62
2023/07/19 08:12:53;;;;;;;4.55;3.00;;;25.90;60.80;;;;;;4962923;28;20042;-62
2023/07/19 08:15:19;;;;;;;6.30;2.50;;;26.00;60.00;;;;;;4975514;28;20045;-64
2023/07/19 08:17:44;;;;;;;3.40;2.50;;;26.00;59.20;;;;;;4971336;28;20026;-62
2023/07/19 08:20:10;;;;;;;6.00;2.42;;;26.10;57.70;;;;;;4976104;28;20351;-63
2023/07/19 08:22:37;;;;;;;3.55;2.40;;;26.10;56.80;;;;;;4975659;28;20041;-62
2023/07/19 08:25:04;;;;;;;3.47;1.98;;;26.10;56.00;;;;;;4976368;28;20042;-62
2023/07/19 08:27:30;;;;;;;3.50;1.90;;;26.10;55.20;;;;;;4975055;28;20106;-63
2023/07/19 08:29:55;;;;;;;4.35;2.40;;;26.10;55.00;;;;;;4974835;28;20062;-62
2023/07/19 08:32:21;;;;;;;3.10;1.92;;;26.20;54.30;;;;;;4975948;28;20195;-63
2023/07/19 08:34:47;;;;;;;2.92;2.13;;;26.20;54.00;;;;;;4974056;28;21197;-61
2023/07/19 08:37:12;;;;;;;2.47;2.00;;;26.20;54.80;;;;;;4976542;28;20027;-62
2023/07/19 08:39:38;;;;;;;4.43;1.60;;;26.20;54.30;;;;;;4976796;28;20098;-62
2023/07/19 08:42:04;;;;;;;4.50;2.17;;;26.30;54.80;;;;;;4974893;28;20125;-63
2023/07/19 08:44:30;;;;;;;6.10;1.55;;;26.30;53.50;;;;;;4972654;28;20473;-63
2023/07/19 08:46:56;;;;;;;3.22;1.80;;;26.40;53.90;;;;;;4976536;28;20034;-61
2023/07/19 08:49:22;;;;;;;2.88;1.60;;;26.40;54.40;;;;;;4975526;28;20058;-61
2023/07/19 08:51:48;;;;;;;2.25;1.60;;;26.50;52.80;;;;;;4977016;28;20586;-62
2023/07/19 08:54:14;;;;;;;7.45;1.85;;;26.60;52.00;;;;;;4973554;28;20039;-61
2023/07/19 08:56:41;;;;;;;2.25;1.48;;;26.60;51.40;;;;;;4971283;28;20030;-60
2023/07/19 08:59:07;;;;;;;2.45;1.70;;;26.70;52.00;;;;;;4976236;28;20042;-61
2023/07/19 09:01:33;;;;;;;4.30;1.67;;;26.70;51.70;;;;;;4977021;28;20022;-60
2023/07/19 09:03:59;;;;;;;2.92;1.40;;;26.80;51.10;;;;;;4977568;28;20042;-63
2023/07/19 09:06:28;;;;;;;2.78;1.58;;;26.90;51.80;;;;;;4976231;28;20031;-61
2023/07/19 09:08:54;;;;;;;2.33;1.65;;;27.00;50.50;;;;;;4975791;28;20406;-61
2023/07/19 09:11:23;;;;;;;7.88;2.03;;;27.00;48.40;;;;;;4978306;28;20465;-63
2023/07/19 09:13:58;;;;;;;3.92;1.67;;;27.10;48.20;;;;;;4978007;28;20026;-61
2023/07/19 09:16:24;;;;;;;;;;;27.10;48.20;;;;;;4982185;28;20121;-62
2023/07/19 09:18:50;;;;;;;2.65;1.70;;;27.10;47.90;;;;;;4980640;28;20056;-63
2023/07/19 09:21:16;;;;;;;2.45;1.67;;;27.20;49.00;;;;;;4979354;28;20117;-62
2023/07/19 09:23:42;;;;;;;6.90;1.45;;;27.20;49.30;;;;;;4981269;28;20085;-61
2023/07/19 09:26:07;;;;;;;9.05;1.80;;;27.20;48.60;;;;;;4979760;28;20042;-62
2023/07/19 09:28:34;;;;;;;3.05;1.63;;;27.20;49.10;;;;;;4975873;28;20053;-61
2023/07/19 09:31:03;;;;;;;2.05;1.50;;;27.20;48.50;;;;;;4975689;28;20047;-62
2023/07/19 09:33:28;;;;;;;7.15;1.77;;;27.20;48.60;;;;;;4979334;28;20506;-62
2023/07/19 09:35:56;;;;;;;3.55;1.40;;;27.20;49.10;;;;;;4978945;28;20042;-62
2023/07/19 09:38:25;;;;;;;3.03;1.77;;;27.30;49.50;;;;;;4974758;28;20453;-63
2023/07/19 09:40:53;;;;;;;8.05;2.08;;;27.30;48.50;;;;;;4976427;28;20039;-62
2023/07/19 09:43:20;;;;;;;2.20;1.45;;;27.40;49.10;;;;;;4977454;28;20490;-60
2023/07/19 09:45:48;;;;;;;1.85;1.67;;;27.50;48.90;;;;;;4980242;28;20026;-61
2023/07/19 09:48:16;;;;;;;6.82;3.17;;;27.50;48.90;;;;;;4980921;28;20043;-60
2023/07/19 09:50:42;;;;;;;4.45;2.20;;;27.60;48.70;;;;;;4979614;28;20158;-62
2023/07/19 09:53:13;;;;;;;2.70;1.70;;;27.60;48.30;;;;;;4979679;28;20402;-60
2023/07/19 09:55:39;;;;;;;2.55;1.90;;;27.70;48.80;;;;;;4979061;28;20121;-61
2023/07/19 09:58:09;;;;;;;4.13;1.92;;;27.80;49.00;;;;;;4978481;28;20034;-61
2023/07/19 10:00:34;;;;;;;4.88;2.60;;;27.80;47.60;;;;;;4971509;28;20038;-62
2023/07/19 10:03:00;;;;;;;4.43;2.22;;;27.80;47.20;;;;;;4979719;28;20389;-61
2023/07/19 10:05:28;;;;;;;3.20;1.88;;;27.80;47.40;;;;;;4973043;28;20043;-60
2023/07/19 10:08:02;;;;;;;7.90;1.80;;;27.80;47.70;;;;;;4973814;28;20470;-62
2023/07/19 10:10:41;;;;;;;4.05;1.88;;;27.80;48.60;;;;;;4978979;28;20053;-61
2023/07/19 10:13:08;;;;;;;6.85;1.88;;;27.90;47.20;;;;;;4975740;28;20039;-62
2023/07/19 10:15:35;;;;;;;4.18;1.98;;;27.90;48.30;;;;;;4976943;28;20085;-61
2023/07/19 10:18:01;;;;;;;5.45;2.10;;;28.00;48.60;;;;;;4970580;28;20065;-60
2023/07/19 10:20:33;;;;;;;3.15;2.25;;;28.00;49.30;;;;;;4970580;28;20429;-62
2023/07/19 10:23:06;;;;;;;6.43;1.98;;;28.10;48.70;;;;;;4969236;28;20101;-61
2023/07/19 10:25:45;;;;;;;4.47;2.60;;;28.10;49.40;;;;;;4972102;28;20041;-63
2023/07/19 10:28:12;;;;;;;7.28;2.25;;;28.30;48.50;;;;;;4971667;28;20035;-61
2023/07/19 10:30:48;;;;;;;6.22;2.67;;;28.30;48.80;;;;;;4970202;28;20045;-62
2023/07/19 10:33:19;;;;;;;2.40;2.05;;;28.40;47.60;;;;;;4960638;28;20054;-63
2023/07/19 10:35:46;;;;;;;5.38;2.42;;;28.40;47.30;;;;;;4968160;28;20057;-62
2023/07/19 10:38:20;;;;;;;3.40;2.30;;;28.50;47.60;;;;;;4964950;28;20034;-63
2023/07/19 10:41:00;;;;;;;3.37;2.23;;;28.50;47.30;;;;;;4970429;28;20035;-64
2023/07/19 10:43:27;;;;;;;2.97;2.13;;;28.50;46.70;;;;;;4970716;28;20286;-62
2023/07/19 10:45:53;;;;;;;3.10;2.30;;;28.60;47.50;;;;;;4975618;28;20042;-62
2023/07/19 10:48:23;;;;;;;3.45;2.45;;;28.50;47.50;;;;;;4978130;28;20040;-61
2023/07/19 10:50:50;;;;;;;2.70;2.15;;;28.50;47.50;;;;;;4976619;28;20125;-62
2023/07/19 10:53:15;;;;;;;2.17;2.00;;;28.50;47.70;;;;;;4977634;28;20042;-62
2023/07/19 10:55:42;;;;;;;6.68;2.70;;;28.50;47.50;;;;;;4976707;28;20122;-62
2023/07/19 10:58:08;;;;;;;6.57;2.38;;;28.50;47.30;;;;;;4970253;28;20035;-62
2023/07/19 11:00:37;;;;;;;4.05;2.70;;;28.40;47.50;;;;;;4974552;28;20574;-62
2023/07/19 11:03:03;;;;;;;2.50;2.30;;;28.40;47.60;;;;;;4976272;28;20066;-61
2023/07/19 11:05:29;;;;;;;2.90;2.22;;;28.40;48.40;;;;;;4975261;28;20502;-62
2023/07/19 11:07:54;;;;;;;4.53;2.78;;;28.50;48.70;;;;;;4976474;28;20027;-62
2023/07/19 11:10:21;;;;;;;7.65;2.60;;;28.50;47.30;;;;;;4979357;28;20027;-62
2023/07/19 11:12:47;;;;;;;2.88;2.45;;;28.60;47.10;;;;;;4979451;28;20465;-61
2023/07/19 11:15:14;;;;;;;3.42;2.47;;;28.60;47.60;;;;;;4972316;28;20035;-61
2023/07/19 11:17:40;;;;;;;2.50;2.30;;;28.60;48.30;;;;;;4979603;28;20031;-60
2023/07/19 11:20:07;;;;;;;3.25;2.70;;;28.70;47.90;;;;;;4979321;28;20092;-61
2023/07/19 11:22:33;;;;;;;4.28;3.00;;;28.70;47.80;;;;;;4976826;28;20513;-62
2023/07/19 11:24:59;;;;;;;3.30;2.50;;;28.80;48.10;;;;;;4977732;28;20041;-62
2023/07/19 11:27:35;;;;;;;5.20;2.60;;;28.80;48.40;;;;;;4978701;28;20125;-62
2023/07/19 11:30:02;;;;;;;4.97;2.67;;;28.90;47.70;;;;;;4977966;28;20473;-62
2023/07/19 11:32:28;;;;;;;4.15;2.42;;;29.00;48.30;;;;;;4973859;28;20271;-62
2023/07/19 11:35:00;;;;;;;4.03;2.55;;;29.10;47.10;;;;;;4977806;28;20398;-63
2023/07/19 11:37:28;;;;;;;3.72;2.92;;;29.10;47.00;;;;;;4973630;28;20121;-62
2023/07/19 11:39:57;;;;;;;4.03;3.00;;;29.20;47.20;;;;;;4975776;28;20041;-62
2023/07/19 11:42:50;;;;;;;5.63;2.80;;;29.20;47.10;;;;;;4973090;28;20483;-63
2023/07/19 11:45:17;;;;;;;3.03;2.70;;;29.20;45.60;;;;;;4977604;28;20197;-63
2023/07/19 11:47:44;;;;;;;3.30;2.78;;;29.20;47.40;;;;;;4975847;28;20109;-63
2023/07/19 11:50:12;;;;;;;4.78;2.92;;;29.30;48.00;;;;;;4975532;28;20576;-62
2023/07/19 11:52:54;;;;;;;3.13;2.70;;;29.30;47.10;;;;;;4974697;28;20418;-62
2023/07/19 11:55:20;;;;;;;3.85;2.85;;;29.30;46.70;;;;;;4975361;28;20042;-62
2023/07/19 11:57:48;;;;;;;6.28;3.13;;;29.40;46.70;;;;;;4971895;28;20062;-61
2023/07/19 12:00:15;;;;;;;3.40;2.85;;;29.50;46.10;;;;;;4971802;28;20098;-60
2023/07/19 12:02:45;;;;;;;3.47;2.60;;;29.50;46.80;;;;;;4975473;28;20572;-63
2023/07/19 12:05:21;;;;;;;4.65;2.72;;;29.60;47.40;;;;;;4976192;28;20047;-62
2023/07/19 12:07:50;;;;;;;3.30;2.90;;;29.60;47.00;;;;;;4975408;28;20121;-63
2023/07/19 12:10:17;;;;;;;3.95;2.58;;;29.70;47.20;;;;;;4978200;28;20089;-63
2023/07/19 12:12:44;;;;;;;3.70;2.67;;;29.80;46.90;;;;;;4973085;28;20030;-62
2023/07/19 12:15:11;;;;;;;5.00;3.10;;;29.90;47.00;;;;;;4973054;28;20035;-62
2023/07/19 12:17:37;;;;;;;4.05;3.17;;;29.90;46.00;;;;;;4974295;28;20030;-62
2023/07/19 12:20:07;;;;;;;4.40;3.20;;;30.00;45.50;;;;;;4966825;28;20046;-63
2023/07/19 12:22:40;;;;;;;6.47;3.40;;;30.00;44.40;;;;;;4974609;28;20042;-63
2023/07/19 12:25:06;;;;;;;4.80;2.60;;;30.00;44.30;;;;;;4975914;28;20105;-62
2023/07/19 12:27:32;;;;;;;3.22;2.90;;;30.10;45.90;;;;;;4975163;28;20117;-62
2023/07/19 12:29:58;;;;;;;4.13;3.00;;;30.10;45.10;;;;;;4976938;28;20137;-62
2023/07/19 12:32:27;;;;;;;6.60;3.35;;;30.10;44.40;;;;;;4976181;28;20034;-62
2023/07/19 12:34:54;;;;;;;3.47;3.10;;;30.10;44.30;;;;;;4977467;28;20054;-62
2023/07/19 12:37:20;;;;;;;5.43;2.97;;;30.20;44.40;;;;;;4977011;28;20050;-63
2023/07/19 12:39:46;;;;;;;3.58;2.92;;;30.20;45.10;;;;;;4977885;28;20550;-63
2023/07/19 12:42:11;;;;;;;4.22;3.00;;;30.20;44.60;;;;;;4976130;28;20513;-63